createdAt,value
2022-11-01T00:01:57.549Z,22.10
2022-11-01T00:04:25.926Z,21.73
2022-11-01T00:06:55.204Z,22.40
2022-11-01T00:09:23.346Z,22.00
2022-11-01T00:11:51.416Z,22.87
2022-11-01T00:14:20.813Z,22.00
2022-11-01T00:16:49.196Z,23.07
2022-11-01T00:19:17.299Z,23.97
2022-11-01T00:21:45.393Z,24.07
2022-11-01T00:24:14.752Z,24.10
2022-11-01T00:26:42.866Z,24.57
2022-11-01T00:29:12.200Z,23.83
2022-11-01T00:31:40.114Z,24.43
2022-11-01T00:34:08.015Z,24.07
2022-11-01T00:36:37.377Z,25.40
2022-11-01T00:39:05.894Z,24.43
2022-11-01T00:41:35.136Z,25.83
2022-11-01T00:44:03.659Z,24.47
2022-11-01T00:46:31.713Z,26.00
2022-11-01T00:48:59.757Z,26.77
2022-11-01T00:51:28.418Z,25.00
2022-11-01T00:53:56.302Z,25.20
2022-11-01T00:56:24.217Z,24.97
2022-11-01T00:58:53.560Z,25.60
2022-11-01T01:01:21.722Z,25.57
2022-11-01T01:03:49.678Z,26.53
2022-11-01T01:06:17.609Z,25.67
2022-11-01T01:08:45.492Z,26.23
2022-11-01T01:11:13.428Z,25.67
2022-11-01T01:13:41.260Z,24.90
2022-11-01T01:16:12.564Z,24.53
2022-11-01T01:18:40.654Z,25.93
2022-11-01T01:21:08.662Z,25.77
2022-11-01T01:23:37.554Z,26.50
2022-11-01T01:26:08.151Z,25.20
2022-11-01T01:28:41.621Z,25.00
2022-11-01T01:31:14.546Z,25.20
2022-11-01T01:33:42.673Z,24.17
2022-11-01T01:36:10.984Z,25.23
2022-11-01T01:38:39.070Z,24.70
2022-11-01T01:41:29.974Z,24.47
2022-11-01T01:43:57.956Z,23.97
2022-11-01T01:46:27.201Z,23.77
2022-11-01T01:48:58.732Z,23.83
2022-11-01T01:51:29.992Z,23.80
2022-11-01T01:53:59.393Z,24.47
2022-11-01T01:56:31.978Z,24.50
2022-11-01T01:59:04.272Z,24.20
2022-11-01T02:01:36.456Z,24.93
2022-11-01T02:04:06.617Z,25.27
2022-11-01T02:06:35.853Z,24.70
2022-11-01T02:09:06.362Z,25.07
2022-11-01T02:11:34.503Z,24.83
2022-11-01T02:14:03.564Z,24.97
2022-11-01T02:16:45.130Z,24.70
2022-11-01T02:19:54.680Z,25.37
2022-11-01T02:22:29.647Z,24.53
2022-11-01T02:25:18.917Z,25.80
2022-11-01T02:27:59.837Z,26.80
2022-11-01T02:30:36.756Z,26.00
2022-11-01T02:33:14.497Z,27.40
2022-11-01T02:35:51.605Z,26.27
2022-11-01T02:38:24.833Z,27.07
2022-11-01T02:41:00.961Z,27.27
2022-11-01T02:43:34.525Z,27.47
2022-11-01T02:46:25.555Z,27.13
2022-11-01T02:48:55.985Z,28.20
2022-11-01T02:51:25.696Z,28.63
2022-11-01T02:53:53.642Z,28.47
2022-11-01T02:56:23.391Z,27.13
2022-11-01T02:58:53.595Z,29.03
2022-11-01T03:01:25.746Z,28.77
2022-11-01T03:03:58.721Z,29.17
2022-11-01T03:06:34.192Z,29.33
2022-11-01T03:09:05.671Z,29.17
2022-11-01T03:11:41.015Z,30.53
2022-11-01T03:14:20.970Z,29.10
2022-11-01T03:16:56.572Z,28.27
2022-11-01T03:19:35.787Z,29.03
2022-11-01T03:22:09.954Z,28.63
2022-11-01T03:24:44.943Z,28.97
2022-11-01T03:27:18.271Z,28.37
2022-11-01T03:29:56.756Z,28.90
2022-11-01T03:32:28.998Z,29.87
2022-11-01T03:35:01.190Z,30.03
2022-11-01T03:37:31.776Z,30.13
2022-11-01T03:40:04.582Z,29.40
2022-11-01T03:42:34.277Z,30.20
2022-11-01T03:45:07.773Z,29.87
2022-11-01T03:47:36.337Z,29.80
2022-11-01T03:50:19.585Z,30.60
2022-11-01T03:52:47.611Z,30.17
2022-11-01T03:55:20.294Z,29.23
2022-11-01T03:57:49.501Z,30.47
2022-11-01T04:00:19.400Z,29.20
2022-11-01T04:02:47.680Z,30.50
2022-11-01T04:05:17.794Z,30.17
2022-11-01T04:07:46.029Z,29.47
2022-11-01T04:10:15.091Z,29.43
2022-11-01T04:12:46.316Z,29.43
2022-11-01T04:15:31.922Z,29.73
2022-11-01T04:18:22.546Z,29.60
2022-11-01T04:20:52.521Z,30.40
2022-11-01T04:23:21.033Z,29.57
2022-11-01T04:25:48.998Z,30.27
2022-11-01T04:28:17.229Z,29.80
2022-11-01T04:30:45.114Z,30.33
2022-11-01T04:33:13.070Z,30.17
2022-11-01T04:35:41.690Z,29.73
2022-11-01T04:38:12.318Z,31.03
2022-11-01T04:40:40.747Z,30.07
2022-11-01T04:43:08.856Z,30.67
2022-11-01T04:45:36.808Z,31.23
2022-11-01T04:48:06.729Z,29.70
2022-11-01T04:50:35.585Z,31.07
2022-11-01T04:53:03.911Z,31.20
2022-11-01T04:55:33.514Z,30.13
2022-11-01T04:58:01.436Z,31.13
2022-11-01T05:00:29.295Z,31.37
2022-11-01T05:03:03.616Z,31.20
2022-11-01T05:05:32.456Z,30.03
2022-11-01T05:10:38.064Z,32.17
2022-11-01T05:13:06.335Z,30.03
2022-11-01T05:15:40.013Z,30.27
2022-11-01T05:18:16.121Z,30.43
2022-11-01T05:20:44.058Z,31.33
2022-11-01T05:23:12.020Z,31.03
2022-11-01T05:25:41.401Z,30.57
2022-11-01T05:28:13.966Z,31.63
2022-11-01T05:30:43.163Z,29.60
2022-11-01T05:33:12.228Z,29.87
2022-11-01T05:35:40.209Z,30.23
2022-11-01T05:38:09.189Z,31.37
2022-11-01T05:40:37.064Z,30.87
2022-11-01T05:43:06.550Z,31.13
2022-11-01T05:45:34.526Z,31.47
2022-11-01T05:48:06.631Z,30.33
2022-11-01T05:50:34.673Z,31.30
2022-11-01T05:53:07.424Z,30.70
2022-11-01T05:55:36.115Z,30.67
2022-11-01T05:58:04.261Z,30.30
2022-11-01T06:00:34.533Z,30.63
2022-11-01T06:03:03.239Z,30.83
2022-11-01T06:05:31.615Z,30.97
2022-11-01T06:08:01.310Z,30.73
2022-11-01T06:10:29.462Z,30.33
2022-11-01T06:12:57.371Z,31.13
2022-11-01T06:15:25.660Z,30.47
2022-11-01T06:17:58.258Z,30.90
2022-11-01T06:20:26.371Z,30.23
2022-11-01T06:22:54.251Z,31.33
2022-11-01T06:25:22.768Z,30.60
2022-11-01T06:27:50.674Z,29.57
2022-11-01T06:30:18.804Z,31.10
2022-11-01T06:32:46.827Z,30.17
2022-11-01T06:35:16.225Z,30.37
2022-11-01T06:37:44.144Z,29.83
2022-11-01T06:40:13.985Z,29.93
2022-11-01T06:42:46.316Z,29.73
2022-11-01T06:45:15.983Z,30.30
2022-11-01T06:47:47.813Z,29.97
2022-11-01T06:50:17.385Z,30.17
2022-11-01T06:52:45.232Z,29.60
2022-11-01T06:55:13.149Z,30.20
2022-11-01T06:57:41.095Z,31.63
2022-11-01T07:00:10.435Z,30.50
2022-11-01T07:02:38.708Z,30.10
2022-11-01T07:05:07.794Z,29.80
2022-11-01T07:07:37.029Z,30.77
2022-11-01T07:10:05.607Z,29.87
2022-11-01T07:12:33.561Z,28.40
2022-11-01T07:15:01.427Z,29.47
2022-11-01T07:17:29.421Z,30.37
2022-11-01T07:19:57.296Z,30.60
2022-11-01T07:22:25.212Z,28.67
2022-11-01T07:24:54.436Z,29.87
2022-11-01T07:27:22.362Z,29.57
2022-11-01T07:29:50.223Z,30.30
2022-11-01T07:32:18.175Z,28.77
2022-11-01T07:34:46.106Z,29.33
2022-11-01T07:37:14.061Z,28.90
2022-11-01T07:39:41.983Z,27.77
2022-11-01T07:42:11.397Z,29.20
2022-11-01T07:44:39.281Z,27.87
2022-11-01T07:47:07.197Z,28.50
2022-11-01T07:49:35.169Z,28.37
2022-11-01T07:52:04.205Z,26.80
2022-11-01T07:54:32.146Z,26.57
2022-11-01T07:57:00.163Z,25.77
2022-11-01T07:59:29.425Z,27.10
2022-11-01T08:01:57.488Z,26.17
2022-11-01T08:04:25.579Z,26.77
2022-11-01T08:06:53.638Z,26.80
2022-11-01T08:09:22.914Z,25.87
2022-11-01T08:11:51.472Z,25.60
2022-11-01T08:14:19.349Z,26.73
2022-11-01T08:16:55.549Z,24.60
2022-11-01T08:19:23.494Z,23.17
2022-11-01T08:21:51.547Z,23.20
2022-11-01T08:24:19.751Z,22.37
2022-11-01T08:26:47.644Z,22.67
2022-11-01T08:29:15.563Z,21.30
2022-11-01T08:31:43.657Z,20.93
2022-11-01T08:34:16.934Z,22.77
2022-11-01T08:36:45.318Z,20.53
2022-11-01T08:39:13.369Z,20.60
2022-11-01T08:41:41.386Z,19.90
2022-11-01T08:44:09.459Z,19.60
2022-11-01T08:46:37.333Z,18.07
2022-11-01T08:49:05.273Z,18.30
2022-11-01T08:51:34.541Z,18.63
2022-11-01T08:54:02.995Z,17.77
2022-11-01T08:56:30.979Z,18.37
2022-11-01T08:58:59.662Z,16.97
2022-11-01T09:01:27.921Z,17.50
2022-11-01T09:03:57.846Z,16.07
2022-11-01T09:06:25.884Z,15.90
2022-11-01T09:08:55.550Z,15.47
2022-11-01T09:11:24.997Z,14.73
2022-11-01T09:13:54.487Z,13.60
2022-11-01T09:16:22.469Z,13.03
2022-11-01T09:18:50.582Z,12.20
2022-11-01T09:21:18.540Z,12.57
2022-11-01T09:23:47.015Z,11.63
2022-11-01T09:26:16.416Z,12.23
2022-11-01T09:28:44.288Z,11.90
2022-11-01T09:31:21.110Z,11.50
2022-11-01T09:33:49.634Z,11.27
2022-11-01T09:36:17.561Z,10.50
2022-11-01T09:38:45.489Z,11.23
2022-11-01T09:41:25.592Z,10.53
2022-11-01T09:43:54.854Z,10.27
2022-11-01T09:46:26.511Z,11.10
2022-11-01T09:48:56.556Z,10.67
2022-11-01T09:51:26.082Z,9.80
2022-11-01T09:53:57.448Z,9.67
2022-11-01T09:56:30.637Z,9.63
2022-11-01T09:59:06.973Z,9.30
2022-11-01T10:01:43.136Z,8.90
2022-11-01T10:04:41.778Z,8.73
2022-11-01T10:07:16.007Z,8.47
2022-11-01T10:09:50.542Z,8.40
2022-11-01T10:12:35.374Z,8.50
2022-11-01T10:15:19.331Z,7.80
2022-11-01T10:17:52.896Z,7.40
2022-11-01T10:20:23.985Z,7.07
2022-11-01T10:22:52.216Z,7.23
2022-11-01T10:25:23.485Z,7.43
2022-11-01T10:28:00.996Z,7.23
2022-11-01T10:30:32.493Z,7.40
2022-11-01T10:33:04.579Z,6.97
2022-11-01T10:35:37.761Z,6.73
2022-11-01T10:38:24.928Z,6.40
2022-11-01T10:41:03.804Z,6.40
2022-11-01T10:43:38.082Z,6.40
2022-11-01T10:46:09.672Z,6.03
2022-11-01T10:48:43.974Z,5.47
2022-11-01T10:51:13.558Z,5.60
2022-11-01T10:53:46.015Z,5.13
2022-11-01T10:56:21.443Z,5.23
2022-11-01T10:59:01.044Z,5.43
2022-11-01T11:01:32.686Z,5.30
2022-11-01T11:04:04.556Z,5.80
2022-11-01T11:06:33.921Z,5.17
2022-11-01T11:09:02.934Z,5.20
2022-11-01T11:11:35.699Z,5.70
2022-11-01T11:14:07.967Z,5.40
2022-11-01T11:16:41.212Z,5.43
2022-11-01T11:19:19.513Z,5.23
2022-11-01T11:21:49.966Z,5.10
2022-11-01T11:24:20.442Z,4.60
2022-11-01T11:26:53.998Z,4.00
2022-11-01T11:29:37.152Z,4.47
2022-11-01T11:32:08.202Z,3.90
2022-11-01T11:34:39.145Z,3.50
2022-11-01T11:37:09.592Z,3.60
2022-11-01T11:39:38.628Z,3.43
2022-11-01T11:42:17.490Z,3.07
2022-11-01T11:44:51.944Z,2.47
2022-11-01T11:47:25.589Z,2.30
2022-11-01T11:49:53.931Z,1.70
2022-11-01T11:52:28.551Z,1.70
2022-11-01T11:54:57.020Z,1.90
2022-11-01T11:57:27.048Z,1.40
2022-11-01T11:59:58.207Z,1.73
2022-11-01T12:02:28.769Z,1.70
2022-11-01T12:04:59.168Z,1.50
2022-11-01T12:07:32.141Z,1.50
2022-11-01T12:10:03.235Z,1.57
2022-11-01T12:12:33.480Z,1.33
2022-11-01T12:15:03.875Z,1.40
2022-11-01T12:17:37.590Z,1.40
2022-11-01T12:20:13.591Z,1.60
2022-11-01T12:22:46.009Z,1.60
2022-11-01T12:25:18.962Z,1.30
2022-11-01T12:28:00.762Z,1.70
2022-11-01T12:30:34.546Z,1.60
2022-11-01T12:33:07.483Z,1.43
2022-11-01T12:35:42.169Z,1.63
2022-11-01T12:38:36.434Z,1.70
2022-11-01T12:41:18.746Z,1.33
2022-11-01T12:44:14.079Z,1.40
2022-11-01T12:46:48.397Z,1.40
2022-11-01T12:49:27.713Z,1.27
2022-11-01T12:52:01.693Z,1.50
2022-11-01T12:54:35.013Z,1.80
2022-11-01T12:57:03.124Z,1.53
2022-11-01T12:59:36.925Z,2.10
2022-11-01T13:02:28.185Z,2.30
2022-11-01T13:05:02.721Z,2.30
2022-11-01T13:07:41.986Z,2.50
2022-11-01T13:10:17.771Z,2.50
2022-11-01T13:12:53.602Z,2.70
2022-11-01T13:15:28.305Z,1.60
2022-11-01T13:18:05.401Z,3.10
2022-11-01T13:20:45.108Z,2.70
2022-11-01T13:23:20.271Z,1.63
2022-11-01T13:25:54.401Z,2.47
2022-11-01T13:28:41.149Z,1.90
2022-11-01T13:31:19.232Z,2.70
2022-11-01T13:33:57.432Z,2.20
2022-11-01T13:36:32.999Z,2.77
2022-11-01T13:39:12.089Z,2.00
2022-11-01T13:41:47.000Z,1.80
2022-11-01T13:44:20.073Z,1.63
2022-11-01T13:47:13.277Z,1.83
2022-11-01T13:50:15.144Z,1.80
2022-11-01T13:52:46.892Z,1.87
2022-11-01T13:55:22.881Z,1.80
2022-11-01T13:57:51.126Z,2.07
2022-11-01T14:00:38.313Z,1.80
2022-11-01T14:03:25.648Z,1.50
2022-11-01T14:06:33.212Z,1.80
2022-11-01T14:09:29.858Z,1.53
2022-11-01T14:11:59.362Z,1.30
2022-11-01T14:14:50.097Z,1.60
2022-11-01T14:17:55.902Z,1.93
2022-11-01T14:20:46.969Z,2.00
2022-11-01T14:23:52.340Z,1.63
2022-11-01T14:26:46.607Z,1.63
2022-11-01T14:29:15.063Z,1.70
2022-11-01T14:31:47.082Z,1.80
2022-11-01T14:34:32.668Z,1.57
2022-11-01T14:37:11.476Z,1.40
2022-11-01T14:39:44.533Z,1.50
2022-11-01T14:42:20.722Z,1.53
2022-11-01T14:44:52.502Z,1.60
2022-11-01T14:47:31.730Z,1.60
2022-11-01T14:50:02.278Z,1.90
2022-11-01T14:52:36.149Z,1.90
2022-11-01T14:55:13.497Z,1.70
2022-11-01T14:57:43.037Z,1.73
2022-11-01T15:00:26.117Z,1.40
2022-11-01T15:02:54.225Z,2.00
2022-11-01T15:05:22.371Z,1.40
2022-11-01T15:07:52.478Z,1.50
2022-11-01T15:10:21.086Z,1.70
2022-11-01T15:12:53.958Z,1.77
2022-11-01T15:15:24.055Z,1.60
2022-11-01T15:17:55.366Z,1.40
2022-11-01T15:20:26.279Z,1.30
2022-11-01T15:22:55.966Z,1.70
2022-11-01T15:25:27.462Z,1.67
2022-11-01T15:27:58.005Z,1.67
2022-11-01T15:30:28.125Z,1.60
2022-11-01T15:33:15.041Z,1.50
2022-11-01T15:35:43.581Z,1.50
2022-11-01T15:38:20.746Z,1.40
2022-11-01T15:40:50.395Z,1.70
2022-11-01T15:43:21.716Z,1.60
2022-11-01T15:45:54.558Z,2.10
2022-11-01T15:48:25.707Z,1.80
2022-11-01T15:50:58.270Z,1.53
2022-11-01T15:53:30.679Z,1.70
2022-11-01T15:56:03.380Z,1.80
2022-11-01T15:58:37.793Z,1.50
2022-11-01T16:01:13.172Z,1.40
2022-11-01T16:03:44.781Z,1.90
2022-11-01T16:06:18.624Z,1.67
2022-11-01T16:08:52.183Z,1.80
2022-11-01T16:11:22.851Z,1.87
2022-11-01T16:13:57.130Z,1.60
2022-11-01T16:16:25.150Z,2.07
2022-11-01T16:18:54.806Z,1.60
2022-11-01T16:21:29.418Z,2.03
2022-11-01T16:24:06.774Z,3.33
2022-11-01T16:26:59.055Z,4.80
2022-11-01T16:29:42.524Z,2.10
2022-11-01T16:32:19.064Z,3.10
2022-11-01T16:34:47.565Z,3.07
2022-11-01T16:37:22.527Z,3.80
2022-11-01T16:39:50.511Z,3.83
2022-11-01T16:42:19.390Z,3.30
2022-11-01T16:44:52.976Z,3.07
2022-11-01T16:47:21.025Z,4.27
2022-11-01T16:49:51.239Z,1.97
2022-11-01T16:52:19.750Z,1.70
2022-11-01T16:54:49.745Z,1.70
2022-11-01T16:57:23.256Z,2.40
2022-11-01T16:59:54.447Z,2.13
2022-11-01T17:02:25.428Z,2.30
2022-11-01T17:04:58.523Z,2.00
2022-11-01T17:07:27.570Z,1.77
2022-11-01T17:09:55.621Z,2.17
2022-11-01T17:12:23.532Z,2.13
2022-11-01T17:14:53.535Z,2.00
2022-11-01T17:17:24.557Z,2.27
2022-11-01T17:19:59.476Z,1.73
2022-11-01T17:22:33.553Z,2.77
2022-11-01T17:25:01.586Z,2.20
2022-11-01T17:27:29.932Z,2.23
2022-11-01T17:29:59.341Z,1.97
2022-11-01T17:32:27.462Z,2.13
2022-11-01T17:34:56.664Z,1.90
2022-11-01T17:37:30.001Z,1.60
2022-11-01T17:39:57.928Z,2.20
2022-11-01T17:42:25.815Z,2.03
2022-11-01T17:44:53.753Z,1.93
2022-11-01T17:47:23.090Z,2.23
2022-11-01T17:49:50.979Z,2.00
2022-11-01T17:52:18.875Z,1.70
2022-11-01T17:54:46.767Z,2.10
2022-11-01T17:57:14.660Z,2.00
2022-11-01T17:59:42.647Z,2.03
2022-11-01T18:02:11.486Z,2.27
2022-11-01T18:04:40.889Z,2.00
2022-11-01T18:07:13.048Z,2.30
2022-11-01T18:09:41.376Z,2.40
2022-11-01T18:12:13.553Z,1.97
2022-11-01T18:17:29.852Z,2.00
2022-11-01T18:20:04.160Z,2.23
2022-11-01T18:22:42.235Z,2.00
2022-11-01T18:25:21.856Z,2.30
2022-11-01T18:27:50.488Z,2.17
2022-11-01T18:30:20.429Z,2.27
2022-11-01T18:32:53.715Z,2.20
2022-11-01T18:35:31.900Z,2.50
2022-11-01T18:38:25.905Z,2.30
2022-11-01T18:41:00.061Z,2.30
2022-11-01T18:43:30.090Z,1.93
2022-11-01T18:46:23.516Z,2.60
2022-11-01T18:48:48.003Z,2.00
2022-11-01T18:51:24.111Z,2.10
2022-11-01T18:53:55.685Z,2.47
2022-11-01T18:56:26.088Z,2.27
2022-11-01T18:58:56.182Z,2.73
2022-11-01T19:01:31.594Z,2.50
2022-11-01T19:04:05.823Z,2.00
2022-11-01T19:06:35.129Z,2.37
2022-11-01T19:09:17.233Z,2.70
2022-11-01T19:11:45.180Z,2.70
2022-11-01T19:14:20.716Z,2.93
2022-11-01T19:16:49.025Z,2.70
2022-11-01T19:19:20.857Z,2.60
2022-11-01T19:21:50.132Z,2.77
2022-11-01T19:24:31.787Z,2.67
2022-11-01T19:27:00.151Z,2.73
2022-11-01T19:29:32.057Z,2.43
2022-11-01T19:32:03.021Z,2.53
2022-11-01T19:34:36.234Z,2.80
2022-11-01T19:37:15.810Z,2.83
2022-11-01T19:39:44.220Z,2.60
2022-11-01T19:42:19.919Z,2.60
2022-11-01T19:44:47.981Z,2.43
2022-11-01T19:47:31.645Z,2.50
2022-11-01T19:49:59.626Z,2.60
2022-11-01T19:52:35.212Z,2.10
2022-11-01T19:55:21.197Z,2.93
2022-11-01T19:57:49.177Z,2.50
2022-11-01T20:00:21.076Z,2.30
2022-11-01T20:02:50.055Z,2.50
2022-11-01T20:05:28.821Z,2.30
2022-11-01T20:08:07.844Z,2.43
2022-11-01T20:10:35.905Z,2.10
2022-11-01T20:13:03.956Z,2.30
2022-11-01T20:15:32.246Z,2.60
2022-11-01T20:18:00.176Z,2.30
2022-11-01T20:20:28.133Z,2.20
2022-11-01T20:23:20.465Z,2.50
2022-11-01T20:25:46.993Z,2.43
2022-11-01T20:28:15.108Z,2.40
2022-11-01T20:30:42.981Z,2.47
2022-11-01T20:33:10.922Z,2.57
2022-11-01T20:35:38.792Z,2.40
2022-11-01T20:38:06.910Z,2.37
2022-11-01T20:40:34.786Z,2.53
2022-11-01T20:43:04.711Z,2.30
2022-11-01T20:45:34.463Z,2.10
2022-11-01T20:48:02.858Z,2.50
2022-11-01T20:50:30.897Z,2.37
2022-11-01T20:52:58.822Z,2.40
2022-11-01T20:55:26.837Z,2.40
2022-11-01T20:57:55.049Z,2.13
2022-11-01T21:00:24.440Z,2.53
2022-11-01T21:02:52.588Z,2.30
2022-11-01T21:05:24.036Z,2.53
2022-11-01T21:07:58.018Z,2.00
2022-11-01T21:10:30.091Z,2.23
2022-11-01T21:13:00.064Z,2.50
2022-11-01T21:15:36.503Z,2.43
2022-11-01T21:18:33.494Z,2.43
2022-11-01T21:21:26.273Z,2.73
2022-11-01T21:23:54.949Z,2.60
2022-11-01T21:26:24.791Z,2.30
2022-11-01T21:28:54.542Z,2.13
2022-11-01T21:31:29.520Z,2.77
2022-11-01T21:34:01.268Z,2.20
2022-11-01T21:36:33.686Z,2.03
2022-11-01T21:39:03.387Z,2.60
2022-11-01T21:41:35.862Z,2.00
2022-11-01T21:44:29.130Z,2.13
2022-11-01T21:47:11.793Z,2.20
2022-11-01T21:49:39.846Z,2.20
2022-11-01T21:54:44.187Z,2.53
2022-11-01T21:57:12.805Z,2.33
2022-11-01T21:59:41.386Z,2.50
2022-11-01T22:02:12.475Z,2.27
2022-11-01T22:04:40.916Z,1.90
2022-11-01T22:07:09.975Z,1.97
2022-11-01T22:09:37.949Z,2.30
2022-11-01T22:12:06.737Z,2.10
2022-11-01T22:14:35.218Z,2.50
2022-11-01T22:17:03.138Z,1.87
2022-11-01T22:19:32.441Z,2.20
2022-11-01T22:22:00.478Z,2.10
2022-11-01T22:24:28.497Z,1.90
2022-11-01T22:26:56.408Z,2.37
2022-11-01T22:29:24.257Z,2.20
2022-11-01T22:31:52.218Z,1.90
2022-11-01T22:34:21.143Z,2.60
2022-11-01T22:36:50.647Z,1.83
2022-11-01T22:39:21.886Z,2.23
2022-11-01T22:41:50.343Z,2.10
2022-11-01T22:44:21.221Z,1.87
2022-11-01T22:46:56.902Z,1.77
2022-11-01T22:49:29.165Z,2.10
2022-11-01T22:52:02.902Z,1.67
2022-11-01T22:54:36.239Z,1.90
2022-11-01T22:57:12.567Z,2.40
2022-11-01T22:59:43.587Z,2.00
2022-11-01T23:02:26.859Z,1.80
2022-11-01T23:05:23.736Z,1.83
2022-11-01T23:07:54.884Z,1.80
2022-11-01T23:10:27.105Z,2.40
2022-11-01T23:13:17.949Z,2.00
2022-11-01T23:15:46.440Z,2.00
2022-11-01T23:18:19.174Z,1.60
2022-11-01T23:20:53.272Z,1.90
2022-11-01T23:23:23.164Z,1.90
2022-11-01T23:25:52.243Z,1.53
2022-11-01T23:28:20.573Z,1.80
2022-11-01T23:30:49.476Z,1.83
2022-11-01T23:33:19.837Z,1.73
2022-11-01T23:35:51.966Z,1.67
2022-11-01T23:38:24.329Z,2.00
2022-11-01T23:40:54.474Z,1.90
2022-11-01T23:43:25.147Z,1.73
2022-11-01T23:45:53.564Z,1.97
2022-11-01T23:48:23.479Z,2.00
2022-11-01T23:50:53.814Z,1.60
2022-11-01T23:53:28.140Z,2.00
2022-11-01T23:55:56.456Z,1.83
